Terminal Aerodrome Forecast
Issued by NWS

Home | Current Version | Previous Version | Text Only | Print | Product List | Glossary On
Versions: 1 2 3 4 5 6 7 8 9 10 11 12
000
FTUS46 KSTO 242320
TAFMHR
TAF
KMHR 242320Z 2500/2524 33006KT P6SM SKC
     FM251000 14003KT 4SM BR BCFG SKC
      TEMPO 2513/2517 1 1/2SM BR BCFG VV002
     FM251800 19007KT P6SM BKN250=

USA.gov is the U.S. government's official web portal to all federal, state and local government web resources and services.